Time,TemperatureF,DewpointF,PressureIn,WindDirection,WindDirectionDegrees,WindSpeedMPH,WindSpeedGustMPH,Humidity,HourlyPrecipIn,Conditions,Clouds,dailyrainin,SolarRadiationWatts/m^2,SoftwareType,DateUTC
2013-01-08 00:00:00,17.1,13.4,30.25,SW,219,2.0,10.0,85,0.00,,,0.00,0.00,VWS V14.00,2013-01-08 05:00:00,
2013-01-08 00:01:00,17.1,13.4,30.25,WSW,244,2.0,10.0,85,0.00,,,0.00,0.00,VWS V14.00,2013-01-08 05:01:00,
2013-01-08 00:02:00,17.1,13.4,30.25,WSW,253,2.0,2.0,85,0.00,,,0.00,0.00,VWS V14.00,2013-01-08 05:02:00,
2013-01-08 00:07:00,17.0,13.3,30.24,SW,230,5.0,7.0,85,0.00,,,0.00,0.00,VWS V14.00,2013-01-08 05:07:00,
2013-01-08 00:12:00,17.1,13.6,30.24,SSW,212,1.0,6.0,86,0.00,,,0.00,0.00,VWS V14.00,2013-01-08 05:12:00,
2013-01-08 00:17:00,17.3,13.8,30.24,SW,221,0.0,4.0,86,0.00,,,0.00,0.00,VWS V14.00,2013-01-08 05:17:00,
2013-01-08 00:22:00,17.5,14.3,30.24,SW,215,2.0,6.0,87,0.00,,,0.00,0.00,VWS V14.00,2013-01-08 05:22:00,
2013-01-08 00:27:00,17.6,14.4,30.24,SW,217,0.0,3.0,87,0.00,,,0.00,0.00,VWS V14.00,2013-01-08 05:27:00,
2013-01-08 00:32:00,17.7,14.2,30.24,SW,218,4.0,4.0,86,0.00,,,0.00,0.00,VWS V14.00,2013-01-08 05:32:00,
2013-01-08 00:37:00,17.6,14.1,30.25,SSW,202,3.0,8.0,86,0.00,,,0.00,0.00,VWS V14.00,2013-01-08 05:37:00,
2013-01-08 00:42:00,17.7,14.5,30.24,SW,221,4.0,4.0,87,0.00,,,0.00,0.00,VWS V14.00,2013-01-08 05:42:00,
2013-01-08 00:47:00,17.8,14.6,30.25,WSW,254,3.0,4.0,87,0.00,,,0.00,0.00,VWS V14.00,2013-01-08 05:47:00,
2013-01-08 00:52:00,17.9,14.7,30.24,SW,225,5.0,5.0,87,0.00,,,0.00,0.00,VWS V14.00,2013-01-08 05:52:00,
2013-01-08 00:57:00,18.0,14.8,30.24,SW,225,6.0,6.0,87,0.00,,,0.00,0.00,VWS V14.00,2013-01-08 05:57:00,
2013-01-08 01:02:00,18.1,14.9,30.24,SSW,206,4.0,5.0,87,0.00,,,0.00,0.00,VWS V14.00,2013-01-08 06:02:00,
2013-01-08 01:07:00,18.2,15.0,30.23,SSW,213,4.0,7.0,87,0.00,,,0.00,0.00,VWS V14.00,2013-01-08 06:07:00,
2013-01-08 01:12:00,18.3,15.1,30.23,SSW,205,0.0,5.0,87,0.00,,,0.00,0.00,VWS V14.00,2013-01-08 06:12:00,
2013-01-08 01:17:00,18.3,15.1,30.23,SSW,208,6.0,6.0,87,0.00,,,0.00,0.00,VWS V14.00,2013-01-08 06:17:00,
2013-01-08 01:22:00,18.2,15.0,30.23,SSW,194,5.0,7.0,87,0.00,,,0.00,0.00,VWS V14.00,2013-01-08 06:22:00,
2013-01-08 01:27:00,18.2,15.0,30.22,SSW,207,6.0,10.0,87,0.00,,,0.00,0.00,VWS V14.00,2013-01-08 06:27:00,
2013-01-08 01:32:00,18.2,15.0,30.22,South,172,5.0,10.0,87,0.00,,,0.00,0.00,VWS V14.00,2013-01-08 06:32:00,
2013-01-08 01:37:00,18.4,15.4,30.22,SSW,192,5.0,11.0,88,0.00,,,0.00,0.00,VWS V14.00,2013-01-08 06:37:00,
2013-01-08 01:42:00,18.6,15.6,30.22,SSW,200,4.0,9.0,88,0.00,,,0.00,0.00,VWS V14.00,2013-01-08 06:42:00,
2013-01-08 01:47:00,18.9,15.9,30.22,SSE,157,5.0,11.0,88,0.00,,,0.00,0.00,VWS V14.00,2013-01-08 06:47:00,
2013-01-08 01:52:00,19.1,16.1,30.22,SSW,195,5.0,8.0,88,0.00,,,0.00,0.00,VWS V14.00,2013-01-08 06:52:00,
2013-01-08 01:57:00,19.2,16.2,30.22,SW,219,5.0,11.0,88,0.00,,,0.00,0.00,VWS V14.00,2013-01-08 06:57:00,
2013-01-08 02:02:00,19.4,16.4,30.22,South,169,6.0,6.0,88,0.00,,,0.00,0.00,VWS V14.00,2013-01-08 07:02:00,
2013-01-08 02:07:00,19.7,16.7,30.23,SW,219,3.0,7.0,88,0.00,,,0.00,0.00,VWS V14.00,2013-01-08 07:07:00,
2013-01-08 02:12:00,19.8,16.8,30.23,SW,220,5.0,6.0,88,0.00,,,0.00,0.00,VWS V14.00,2013-01-08 07:12:00,
2013-01-08 02:17:00,19.7,16.5,30.23,SSW,211,4.0,8.0,87,0.00,,,0.00,0.00,VWS V14.00,2013-01-08 07:17:00,
2013-01-08 02:22:00,19.5,16.3,30.23,SSW,199,3.0,9.0,87,0.00,,,0.00,0.00,VWS V14.00,2013-01-08 07:22:00,
2013-01-08 02:27:00,19.3,16.1,30.22,SSW,205,8.0,8.0,87,0.00,,,0.00,0.00,VWS V14.00,2013-01-08 07:27:00,
2013-01-08 02:32:00,19.1,15.9,30.22,SW,217,4.0,5.0,87,0.00,,,0.00,0.00,VWS V14.00,2013-01-08 07:32:00,
2013-01-08 02:37:00,19.0,15.8,30.22,SW,219,3.0,7.0,87,0.00,,,0.00,0.00,VWS V14.00,2013-01-08 07:37:00,
2013-01-08 02:42:00,19.0,15.8,30.22,SSW,206,4.0,6.0,87,0.00,,,0.00,0.00,VWS V14.00,2013-01-08 07:42:00,
2013-01-08 02:47:00,19.0,15.8,30.22,South,191,1.0,7.0,87,0.00,,,0.00,0.00,VWS V14.00,2013-01-08 07:47:00,
2013-01-08 02:52:00,19.0,15.8,30.22,South,186,4.0,7.0,87,0.00,,,0.00,0.00,VWS V14.00,2013-01-08 07:52:00,
2013-01-08 02:57:00,19.0,15.8,30.22,SW,218,6.0,6.0,87,0.00,,,0.00,0.00,VWS V14.00,2013-01-08 07:57:00,
2013-01-08 03:02:00,18.9,15.7,30.21,SW,219,3.0,10.0,87,0.00,,,0.00,0.00,VWS V14.00,2013-01-08 08:02:00,
2013-01-08 03:07:00,19.0,15.8,30.21,SW,219,4.0,10.0,87,0.00,,,0.00,0.00,VWS V14.00,2013-01-08 08:07:00,
2013-01-08 03:12:00,19.1,15.9,30.20,SSW,192,6.0,7.0,87,0.00,,,0.00,0.00,VWS V14.00,2013-01-08 08:12:00,
2013-01-08 03:17:00,19.3,16.1,30.20,South,174,7.0,10.0,87,0.00,,,0.00,0.00,VWS V14.00,2013-01-08 08:17:00,
2013-01-08 03:22:00,19.6,16.6,30.20,South,184,5.0,9.0,88,0.00,,,0.00,0.00,VWS V14.00,2013-01-08 08:22:00,
2013-01-08 03:27:00,20.0,17.0,30.20,South,175,7.0,13.0,88,0.00,,,0.00,0.00,VWS V14.00,2013-01-08 08:27:00,
2013-01-08 03:32:00,20.3,17.3,30.20,South,176,5.0,12.0,88,0.00,,,0.00,0.00,VWS V14.00,2013-01-08 08:32:00,
2013-01-08 03:37:00,20.7,17.7,30.20,South,186,6.0,13.0,88,0.00,,,0.00,0.00,VWS V14.00,2013-01-08 08:37:00,
2013-01-08 03:42:00,20.8,17.8,30.20,SW,216,4.0,8.0,88,0.00,,,0.00,0.00,VWS V14.00,2013-01-08 08:42:00,
2013-01-08 03:47:00,21.0,17.8,30.19,SSW,194,9.0,11.0,87,0.00,,,0.00,0.00,VWS V14.00,2013-01-08 08:47:00,
2013-01-08 03:52:00,21.1,17.8,30.19,SSW,209,3.0,7.0,87,0.00,,,0.00,0.00,VWS V14.00,2013-01-08 08:52:00,
2013-01-08 03:57:00,21.1,17.8,30.19,SSW,211,8.0,10.0,87,0.00,,,0.00,0.00,VWS V14.00,2013-01-08 08:57:00,
2013-01-08 04:02:00,21.1,17.8,30.19,SSW,198,10.0,11.0,87,0.00,,,0.00,0.00,VWS V14.00,2013-01-08 09:02:00,
2013-01-08 04:07:00,21.2,17.9,30.19,South,183,6.0,8.0,87,0.00,,,0.00,0.00,VWS V14.00,2013-01-08 09:07:00,
2013-01-08 04:12:00,21.2,17.9,30.19,SW,234,2.0,6.0,87,0.00,,,0.00,0.00,VWS V14.00,2013-01-08 09:12:00,
2013-01-08 04:17:00,21.2,17.9,30.19,South,185,10.0,10.0,87,0.00,,,0.00,0.00,VWS V14.00,2013-01-08 09:17:00,
2013-01-08 04:22:00,21.1,17.8,30.19,SW,223,4.0,7.0,87,0.00,,,0.00,0.00,VWS V14.00,2013-01-08 09:22:00,
2013-01-08 04:27:00,21.1,17.6,30.19,SSW,209,4.0,7.0,86,0.00,,,0.00,0.00,VWS V14.00,2013-01-08 09:27:00,
2013-01-08 04:32:00,21.1,17.6,30.19,SSW,206,7.0,7.0,86,0.00,,,0.00,0.00,VWS V14.00,2013-01-08 09:32:00,
2013-01-08 04:37:00,21.0,17.5,30.20,SW,225,4.0,8.0,86,0.00,,,0.00,0.00,VWS V14.00,2013-01-08 09:37:00,
2013-01-08 04:42:00,20.9,17.4,30.19,SSW,195,5.0,7.0,86,0.00,,,0.00,0.00,VWS V14.00,2013-01-08 09:42:00,
2013-01-08 04:47:00,20.8,17.3,30.19,South,174,3.0,9.0,86,0.00,,,0.00,0.00,VWS V14.00,2013-01-08 09:47:00,
2013-01-08 04:52:00,20.7,17.2,30.20,SSW,199,0.0,7.0,86,0.00,,,0.00,0.00,VWS V14.00,2013-01-08 09:52:00,
2013-01-08 04:57:00,20.6,17.1,30.20,SSW,196,0.0,0.0,86,0.00,,,0.00,0.00,VWS V14.00,2013-01-08 09:57:00,
2013-01-08 05:02:00,20.5,17.0,30.20,South,178,2.0,3.0,86,0.00,,,0.00,0.00,VWS V14.00,2013-01-08 10:02:00,
2013-01-08 05:07:00,20.4,16.9,30.20,South,184,0.0,3.0,86,0.00,,,0.00,0.00,VWS V14.00,2013-01-08 10:07:00,
2013-01-08 05:12:00,20.4,16.9,30.20,SSW,194,0.0,2.0,86,0.00,,,0.00,0.00,VWS V14.00,2013-01-08 10:12:00,
2013-01-08 05:17:00,20.3,16.8,30.20,South,179,0.0,5.0,86,0.00,,,0.00,0.00,VWS V14.00,2013-01-08 10:17:00,
2013-01-08 05:22:00,20.3,16.8,30.20,SSE,159,0.0,6.0,86,0.00,,,0.00,0.00,VWS V14.00,2013-01-08 10:22:00,
2013-01-08 05:27:00,20.1,16.6,30.20,SE,132,1.0,2.0,86,0.00,,,0.00,0.00,VWS V14.00,2013-01-08 10:27:00,
2013-01-08 05:31:00,19.9,16.4,30.21,ESE,106,0.0,1.0,86,0.00,,,0.00,0.00,VWS V14.00,2013-01-08 10:31:00,
2013-01-08 05:36:00,19.8,16.6,30.21,East,86,3.0,5.0,87,0.00,,,0.00,0.00,VWS V14.00,2013-01-08 10:36:00,
2013-01-08 05:41:00,19.8,16.6,30.21,East,97,0.0,5.0,87,0.00,,,0.00,0.00,VWS V14.00,2013-01-08 10:41:00,
2013-01-08 05:46:00,19.9,16.7,30.21,ESE,103,3.0,3.0,87,0.00,,,0.00,0.00,VWS V14.00,2013-01-08 10:46:00,
2013-01-08 05:51:00,19.9,16.7,30.21,SE,125,1.0,6.0,87,0.00,,,0.00,0.00,VWS V14.00,2013-01-08 10:51:00,
2013-01-08 05:56:00,20.0,17.0,30.21,ENE,71,3.0,5.0,88,0.00,,,0.00,0.00,VWS V14.00,2013-01-08 10:56:00,
2013-01-08 06:01:00,20.2,17.0,30.21,SE,141,6.0,6.0,87,0.00,,,0.00,0.00,VWS V14.00,2013-01-08 11:01:00,
2013-01-08 06:06:00,20.3,17.1,30.21,SE,134,4.0,5.0,87,0.00,,,0.00,0.00,VWS V14.00,2013-01-08 11:06:00,
2013-01-08 06:11:00,20.5,17.5,30.21,SSE,152,3.0,6.0,88,0.00,,,0.00,0.00,VWS V14.00,2013-01-08 11:11:00,
2013-01-08 06:16:00,20.8,17.8,30.22,SSE,150,0.0,6.0,88,0.00,,,0.00,0.00,VWS V14.00,2013-01-08 11:16:00,
2013-01-08 06:21:00,20.8,17.8,30.21,SSW,193,6.0,6.0,88,0.00,,,0.00,0.00,VWS V14.00,2013-01-08 11:21:00,
2013-01-08 06:26:00,20.9,17.9,30.22,South,182,2.0,3.0,88,0.00,,,0.00,0.00,VWS V14.00,2013-01-08 11:26:00,
2013-01-08 06:31:00,21.1,18.1,30.22,South,186,0.0,5.0,88,0.00,,,0.00,0.00,VWS V14.00,2013-01-08 11:31:00,
2013-01-08 06:36:00,21.1,18.1,30.22,SSE,153,1.0,4.0,88,0.00,,,0.00,0.00,VWS V14.00,2013-01-08 11:36:00,
2013-01-08 06:41:00,21.2,18.2,30.22,SSE,166,0.0,3.0,88,0.00,,,0.00,0.00,VWS V14.00,2013-01-08 11:41:00,
2013-01-08 06:46:00,21.3,18.3,30.22,SSW,202,0.0,2.0,88,0.00,,,0.00,0.00,VWS V14.00,2013-01-08 11:46:00,
2013-01-08 06:51:00,21.4,18.4,30.22,SSE,168,1.0,6.0,88,0.00,,,0.00,0.00,VWS V14.00,2013-01-08 11:51:00,
2013-01-08 06:56:00,21.5,18.5,30.21,South,169,0.0,0.0,88,0.00,,,0.00,0.00,VWS V14.00,2013-01-08 11:56:00,
2013-01-08 07:01:00,21.6,18.3,30.21,South,169,1.0,3.0,87,0.00,,,0.00,0.00,VWS V14.00,2013-01-08 12:01:00,
2013-01-08 07:06:00,21.7,18.4,30.22,SE,140,0.0,1.0,87,0.00,,,0.00,0.00,VWS V14.00,2013-01-08 12:06:00,
2013-01-08 07:11:00,21.6,18.3,30.22,South,176,0.0,2.0,87,0.00,,,0.00,0.00,VWS V14.00,2013-01-08 12:11:00,
2013-01-08 07:16:00,21.6,18.3,30.22,South,174,0.0,0.0,87,0.00,,,0.00,5.00,VWS V14.00,2013-01-08 12:16:00,
2013-01-08 07:21:00,21.6,18.3,30.22,South,180,3.0,3.0,87,0.00,,,0.00,7.00,VWS V14.00,2013-01-08 12:21:00,
2013-01-08 07:26:00,21.6,18.3,30.23,South,170,0.0,1.0,87,0.00,,,0.00,9.00,VWS V14.00,2013-01-08 12:26:00,
2013-01-08 07:31:00,21.7,18.4,30.22,SSE,167,0.0,0.0,87,0.00,,,0.00,7.00,VWS V14.00,2013-01-08 12:31:00,
2013-01-08 07:36:00,21.6,18.3,30.22,West,275,0.0,0.0,87,0.00,,,0.00,12.00,VWS V14.00,2013-01-08 12:36:00,
2013-01-08 07:41:00,21.5,18.0,30.22,NE,42,3.0,4.0,86,0.00,,,0.00,14.00,VWS V14.00,2013-01-08 12:41:00,
2013-01-08 07:46:00,21.5,18.2,30.22,SE,131,0.0,1.0,87,0.00,,,0.00,21.00,VWS V14.00,2013-01-08 12:46:00,
2013-01-08 07:51:00,21.8,18.5,30.22,East,98,1.0,3.0,87,0.00,,,0.00,26.00,VWS V14.00,2013-01-08 12:51:00,
2013-01-08 07:56:00,22.0,18.7,30.23,East,97,3.0,3.0,87,0.00,,,0.00,28.00,VWS V14.00,2013-01-08 12:56:00,
2013-01-08 08:01:00,22.2,18.9,30.23,East,80,0.0,0.0,87,0.00,,,0.00,26.00,VWS V14.00,2013-01-08 13:01:00,
2013-01-08 08:06:00,22.5,19.2,30.23,South,179,2.0,2.0,87,0.00,,,0.00,28.00,VWS V14.00,2013-01-08 13:06:00,
2013-01-08 08:11:00,22.6,19.0,30.23,NNE,22,0.0,1.0,86,0.00,,,0.00,32.00,VWS V14.00,2013-01-08 13:11:00,
2013-01-08 08:16:00,22.9,19.6,30.23,NE,46,1.0,2.0,87,0.00,,,0.00,37.00,VWS V14.00,2013-01-08 13:16:00,
2013-01-08 08:21:00,23.1,19.5,30.23,South,180,4.0,7.0,86,0.00,,,0.00,44.00,VWS V14.00,2013-01-08 13:21:00,
2013-01-08 08:26:00,23.8,20.5,30.23,SE,146,6.0,6.0,87,0.00,,,0.00,42.00,VWS V14.00,2013-01-08 13:26:00,
2013-01-08 08:31:00,24.3,20.7,30.23,SSE,163,3.0,4.0,86,0.00,,,0.00,39.00,VWS V14.00,2013-01-08 13:31:00,
2013-01-08 08:36:00,24.5,20.6,30.24,SSW,202,0.0,6.0,85,0.00,,,0.00,44.00,VWS V14.00,2013-01-08 13:36:00,
2013-01-08 08:41:00,24.7,20.8,30.23,SE,130,0.0,5.0,85,0.00,,,0.00,53.00,VWS V14.00,2013-01-08 13:41:00,
2013-01-08 08:46:00,25.0,20.9,30.24,East,85,2.0,6.0,84,0.00,,,0.00,56.00,VWS V14.00,2013-01-08 13:46:00,
2013-01-08 08:51:00,25.3,21.1,30.24,SE,136,3.0,8.0,84,0.00,,,0.00,53.00,VWS V14.00,2013-01-08 13:51:00,
2013-01-08 08:56:00,25.4,21.0,30.24,SSE,147,3.0,8.0,83,0.00,,,0.00,65.00,VWS V14.00,2013-01-08 13:56:00,
2013-01-08 09:01:00,25.5,21.1,30.24,SE,130,5.0,5.0,83,0.00,,,0.00,70.00,VWS V14.00,2013-01-08 14:01:00,
2013-01-08 09:06:00,25.6,21.2,30.24,SE,145,3.0,7.0,83,0.00,,,0.00,70.00,VWS V14.00,2013-01-08 14:06:00,
2013-01-08 09:11:00,25.7,21.0,30.24,SSE,150,8.0,12.0,82,0.00,,,0.00,70.00,VWS V14.00,2013-01-08 14:11:00,
2013-01-08 09:16:00,25.9,21.2,30.24,SE,137,10.0,10.0,82,0.00,,,0.00,79.00,VWS V14.00,2013-01-08 14:16:00,
2013-01-08 09:21:00,26.0,21.3,30.24,SE,139,7.0,7.0,82,0.00,,,0.00,93.00,VWS V14.00,2013-01-08 14:21:00,
2013-01-08 09:26:00,26.1,21.4,30.24,South,171,6.0,8.0,82,0.00,,,0.00,100.00,VWS V14.00,2013-01-08 14:26:00,
2013-01-08 09:31:00,26.3,21.6,30.24,SSE,148,4.0,7.0,82,0.00,,,0.00,107.00,VWS V14.00,2013-01-08 14:31:00,
2013-01-08 09:36:00,26.5,21.8,30.24,SSE,153,5.0,7.0,82,0.00,,,0.00,114.00,VWS V14.00,2013-01-08 14:36:00,
2013-01-08 09:41:00,26.8,22.0,30.24,South,170,0.0,6.0,82,0.00,,,0.00,113.00,VWS V14.00,2013-01-08 14:41:00,
2013-01-08 09:46:00,27.0,22.0,30.25,SSW,200,5.0,5.0,81,0.00,,,0.00,111.00,VWS V14.00,2013-01-08 14:46:00,
2013-01-08 09:51:00,27.2,22.1,30.25,SSE,148,5.0,8.0,81,0.00,,,0.00,100.00,VWS V14.00,2013-01-08 14:51:00,
2013-01-08 09:56:00,27.4,22.0,30.25,SE,144,6.0,6.0,80,0.00,,,0.00,100.00,VWS V14.00,2013-01-08 14:56:00,
2013-01-08 10:01:00,27.5,22.1,30.25,South,180,3.0,9.0,80,0.00,,,0.00,114.00,VWS V14.00,2013-01-08 15:01:00,
2013-01-08 10:06:00,27.7,22.4,30.25,SE,131,4.0,6.0,80,0.00,,,0.00,121.00,VWS V14.00,2013-01-08 15:06:00,
2013-01-08 10:11:00,27.9,22.2,30.24,SSE,155,5.0,6.0,79,0.00,,,0.00,118.00,VWS V14.00,2013-01-08 15:11:00,
2013-01-08 10:16:00,28.0,22.3,30.25,South,179,4.0,7.0,79,0.00,,,0.00,123.00,VWS V14.00,2013-01-08 15:16:00,
2013-01-08 10:21:00,28.2,22.2,30.25,South,173,6.0,8.0,78,0.00,,,0.00,135.00,VWS V14.00,2013-01-08 15:21:00,
2013-01-08 10:26:00,28.4,22.4,30.25,SSE,167,2.0,2.0,78,0.00,,,0.00,139.00,VWS V14.00,2013-01-08 15:26:00,
2013-01-08 10:31:00,28.6,22.6,30.25,South,180,3.0,11.0,78,0.00,,,0.00,132.00,VWS V14.00,2013-01-08 15:31:00,
2013-01-08 10:36:00,28.8,22.5,30.25,SSE,154,7.0,8.0,77,0.00,,,0.00,149.00,VWS V14.00,2013-01-08 15:36:00,
2013-01-08 10:41:00,29.0,22.7,30.25,South,173,3.0,7.0,77,0.00,,,0.00,171.00,VWS V14.00,2013-01-08 15:41:00,
2013-01-08 10:46:00,29.3,23.0,30.24,SE,136,4.0,8.0,77,0.00,,,0.00,174.00,VWS V14.00,2013-01-08 15:46:00,
2013-01-08 10:51:00,29.5,22.9,30.25,South,171,2.0,5.0,76,0.00,,,0.00,176.00,VWS V14.00,2013-01-08 15:51:00,
2013-01-08 10:56:00,29.7,23.1,30.24,South,169,2.0,3.0,76,0.00,,,0.00,160.00,VWS V14.00,2013-01-08 15:56:00,
2013-01-08 11:01:00,30.0,23.4,30.24,South,190,6.0,6.0,76,0.00,,,0.00,158.00,VWS V14.00,2013-01-08 16:01:00,
2013-01-08 11:06:00,30.2,23.2,30.24,South,175,5.0,11.0,75,0.00,,,0.00,169.00,VWS V14.00,2013-01-08 16:06:00,
2013-01-08 11:11:00,30.5,23.2,30.24,SSW,203,9.0,13.0,74,0.00,,,0.00,181.00,VWS V14.00,2013-01-08 16:11:00,
2013-01-08 11:16:00,30.7,23.4,30.24,SSE,157,10.0,14.0,74,0.00,,,0.00,174.00,VWS V14.00,2013-01-08 16:16:00,
2013-01-08 11:21:00,30.9,23.3,30.24,SSE,163,5.0,7.0,73,0.00,,,0.00,165.00,VWS V14.00,2013-01-08 16:21:00,
2013-01-08 11:26:00,31.1,23.5,30.24,SW,232,6.0,8.0,73,0.00,,,0.00,172.00,VWS V14.00,2013-01-08 16:26:00,
2013-01-08 11:31:00,31.3,23.7,30.24,South,175,4.0,10.0,73,0.00,,,0.00,195.00,VWS V14.00,2013-01-08 16:31:00,
2013-01-08 11:36:00,31.5,23.5,30.24,South,185,8.0,10.0,72,0.00,,,0.00,230.00,VWS V14.00,2013-01-08 16:36:00,
2013-01-08 11:41:00,31.7,23.7,30.24,South,170,5.0,11.0,72,0.00,,,0.00,237.00,VWS V14.00,2013-01-08 16:41:00,
2013-01-08 11:46:00,31.9,23.9,30.24,South,181,5.0,8.0,72,0.00,,,0.00,350.00,VWS V14.00,2013-01-08 16:46:00,
2013-01-08 11:51:00,32.2,24.2,30.24,South,182,6.0,10.0,72,0.00,,,0.00,327.00,VWS V14.00,2013-01-08 16:51:00,
2013-01-08 11:56:00,32.6,24.2,30.23,South,170,5.0,9.0,71,0.00,,,0.00,308.00,VWS V14.00,2013-01-08 16:56:00,
2013-01-08 12:01:00,33.0,24.3,30.23,SW,215,5.0,8.0,70,0.00,,,0.00,318.00,VWS V14.00,2013-01-08 17:01:00,
2013-01-08 12:06:00,33.4,24.7,30.23,SSW,212,7.0,7.0,70,0.00,,,0.00,299.00,VWS V14.00,2013-01-08 17:06:00,
2013-01-08 12:11:00,33.8,24.7,30.23,South,182,4.0,8.0,69,0.00,,,0.00,318.00,VWS V14.00,2013-01-08 17:11:00,
2013-01-08 12:16:00,34.1,24.7,30.22,SSW,204,5.0,6.0,68,0.00,,,0.00,327.00,VWS V14.00,2013-01-08 17:16:00,
2013-01-08 12:21:00,34.5,25.0,30.23,South,182,3.0,5.0,68,0.00,,,0.00,311.00,VWS V14.00,2013-01-08 17:21:00,
2013-01-08 12:26:00,34.9,25.1,30.22,South,190,9.0,11.0,67,0.00,,,0.00,338.00,VWS V14.00,2013-01-08 17:26:00,
2013-01-08 12:31:00,35.2,25.0,30.22,SSW,199,6.0,10.0,66,0.00,,,0.00,316.00,VWS V14.00,2013-01-08 17:31:00,
2013-01-08 12:36:00,35.4,25.2,30.22,SSW,203,7.0,8.0,66,0.00,,,0.00,290.00,VWS V14.00,2013-01-08 17:36:00,
2013-01-08 12:41:00,35.6,25.0,30.22,SSW,206,2.0,4.0,65,0.00,,,0.00,313.00,VWS V14.00,2013-01-08 17:41:00,
2013-01-08 12:46:00,35.9,25.3,30.22,SSW,209,2.0,8.0,65,0.01,,,0.01,287.00,VWS V14.00,2013-01-08 17:46:00,
2013-01-08 12:51:00,36.0,25.0,30.22,SSW,198,9.0,9.0,64,0.01,,,0.01,239.00,VWS V14.00,2013-01-08 17:51:00,
2013-01-08 12:56:00,36.0,25.0,30.22,SW,226,6.0,8.0,64,0.01,,,0.01,218.00,VWS V14.00,2013-01-08 17:56:00,
2013-01-08 13:01:00,35.9,24.9,30.22,South,175,2.0,8.0,64,0.01,,,0.01,183.00,VWS V14.00,2013-01-08 18:01:00,
2013-01-08 13:06:00,35.9,24.9,30.22,SW,215,4.0,6.0,64,0.01,,,0.01,188.00,VWS V14.00,2013-01-08 18:06:00,
2013-01-08 13:11:00,35.9,24.9,30.22,South,191,2.0,8.0,64,0.01,,,0.01,200.00,VWS V14.00,2013-01-08 18:11:00,
2013-01-08 13:16:00,36.0,25.0,30.22,SSW,195,3.0,3.0,64,0.01,,,0.01,229.00,VWS V14.00,2013-01-08 18:16:00,
2013-01-08 13:21:00,36.2,25.2,30.22,WSW,239,2.0,3.0,64,0.01,,,0.01,234.00,VWS V14.00,2013-01-08 18:21:00,
2013-01-08 13:26:00,36.5,25.5,30.23,South,175,4.0,4.0,64,0.01,,,0.01,267.00,VWS V14.00,2013-01-08 18:26:00,
2013-01-08 13:31:00,36.9,25.9,30.23,South,184,3.0,5.0,64,0.01,,,0.01,243.00,VWS V14.00,2013-01-08 18:31:00,
2013-01-08 13:36:00,37.1,25.7,30.23,SSE,165,4.0,4.0,63,0.01,,,0.01,218.00,VWS V14.00,2013-01-08 18:36:00,
2013-01-08 13:41:00,37.5,26.1,30.23,SSW,211,3.0,3.0,63,0.01,,,0.01,274.00,VWS V14.00,2013-01-08 18:41:00,
2013-01-08 13:46:00,37.9,26.1,30.23,SSE,163,1.0,5.0,62,0.01,,,0.01,214.00,VWS V14.00,2013-01-08 18:46:00,
2013-01-08 13:52:00,37.3,25.9,30.24,East,95,0.0,3.0,63,0.00,,,0.01,239.00,VWS V14.00,2013-01-08 18:52:00,
2013-01-08 13:57:00,36.6,25.6,30.24,ESE,113,0.0,4.0,64,0.00,,,0.01,260.00,VWS V14.00,2013-01-08 18:57:00,
2013-01-08 14:03:00,36.7,26.1,30.24,SE,132,0.0,3.0,65,0.00,,,0.01,276.00,VWS V14.00,2013-01-08 19:03:00,
2013-01-08 14:08:00,36.7,26.1,30.24,East,91,1.0,3.0,65,0.00,,,0.01,250.00,VWS V14.00,2013-01-08 19:08:00,
2013-01-08 14:13:00,36.6,26.0,30.24,SE,132,0.0,2.0,65,0.01,,,0.02,271.00,VWS V14.00,2013-01-08 19:13:00,
2013-01-08 14:18:00,36.9,25.9,30.24,SE,132,2.0,2.0,64,0.01,,,0.02,227.00,VWS V14.00,2013-01-08 19:18:00,
2013-01-08 14:23:00,37.2,26.2,30.25,West,259,0.0,3.0,64,0.01,,,0.02,220.00,VWS V14.00,2013-01-08 19:23:00,
2013-01-08 14:28:00,37.6,26.2,30.25,South,187,3.0,3.0,63,0.01,,,0.02,179.00,VWS V14.00,2013-01-08 19:28:00,
2013-01-08 14:33:00,37.6,26.2,30.25,South,175,1.0,6.0,63,0.01,,,0.02,118.00,VWS V14.00,2013-01-08 19:33:00,
2013-01-08 14:38:00,37.5,26.5,30.25,SSE,157,0.0,2.0,64,0.02,,,0.03,153.00,VWS V14.00,2013-01-08 19:38:00,
2013-01-08 14:43:00,37.2,26.2,30.26,SSE,158,3.0,3.0,64,0.02,,,0.03,120.00,VWS V14.00,2013-01-08 19:43:00,
2013-01-08 14:48:00,36.6,26.0,30.26,SSE,159,0.0,3.0,65,0.02,,,0.03,90.00,VWS V14.00,2013-01-08 19:48:00,
2013-01-08 14:53:00,35.7,25.5,30.26,SE,138,3.0,4.0,66,0.02,,,0.03,91.00,VWS V14.00,2013-01-08 19:53:00,
2013-01-08 14:58:00,35.1,25.6,30.26,South,169,1.0,4.0,68,0.02,,,0.03,95.00,VWS V14.00,2013-01-08 19:58:00,
2013-01-08 15:03:00,34.6,25.1,30.27,ESE,108,3.0,4.0,68,0.02,,,0.03,72.00,VWS V14.00,2013-01-08 20:03:00,
2013-01-08 15:08:00,34.1,25.0,30.27,ESE,119,0.0,5.0,69,0.02,,,0.03,62.00,VWS V14.00,2013-01-08 20:08:00,
2013-01-08 15:13:00,33.7,25.0,30.27,East,92,2.0,5.0,70,0.01,,,0.03,63.00,VWS V14.00,2013-01-08 20:13:00,
2013-01-08 15:18:00,33.5,25.1,30.27,SE,146,3.0,5.0,71,0.01,,,0.03,46.00,VWS V14.00,2013-01-08 20:18:00,
2013-01-08 15:23:00,33.4,25.0,30.27,SE,146,0.0,3.0,71,0.01,,,0.03,47.00,VWS V14.00,2013-01-08 20:23:00,
2013-01-08 15:28:00,33.3,25.3,30.27,SE,146,0.0,3.0,72,0.01,,,0.03,54.00,VWS V14.00,2013-01-08 20:28:00,
2013-01-08 15:33:00,33.3,25.3,30.28,SE,146,1.0,1.0,72,0.01,,,0.03,56.00,VWS V14.00,2013-01-08 20:33:00,
2013-01-08 15:38:00,33.2,25.2,30.28,SE,146,0.0,2.0,72,0.01,,,0.03,56.00,VWS V14.00,2013-01-08 20:38:00,
2013-01-08 15:43:00,33.1,25.1,30.28,SE,146,1.0,2.0,72,0.00,,,0.03,53.00,VWS V14.00,2013-01-08 20:43:00,
2013-01-08 15:48:00,33.0,25.0,30.28,SE,146,0.0,0.0,72,0.00,,,0.03,49.00,VWS V14.00,2013-01-08 20:48:00,
2013-01-08 15:53:00,32.9,24.9,30.28,SE,146,0.0,2.0,72,0.00,,,0.03,40.00,VWS V14.00,2013-01-08 20:53:00,
2013-01-08 15:58:00,32.8,24.8,30.28,SE,146,0.0,0.0,72,0.00,,,0.03,32.00,VWS V14.00,2013-01-08 20:58:00,
2013-01-08 16:03:00,32.7,24.7,30.28,SE,146,0.0,0.0,72,0.00,,,0.03,23.00,VWS V14.00,2013-01-08 21:03:00,
2013-01-08 16:08:00,32.6,24.6,30.29,SE,146,0.0,0.0,72,0.00,,,0.03,18.00,VWS V14.00,2013-01-08 21:08:00,
2013-01-08 16:13:00,32.4,24.4,30.29,SE,146,0.0,0.0,72,0.00,,,0.03,14.00,VWS V14.00,2013-01-08 21:13:00,
2013-01-08 16:18:00,32.2,24.5,30.29,SE,146,0.0,1.0,73,0.00,,,0.03,11.00,VWS V14.00,2013-01-08 21:18:00,
2013-01-08 16:23:00,31.9,24.2,30.29,SE,146,0.0,1.0,73,0.00,,,0.03,7.00,VWS V14.00,2013-01-08 21:23:00,
2013-01-08 16:28:00,31.5,23.9,30.29,SE,146,0.0,0.0,73,0.00,,,0.03,5.00,VWS V14.00,2013-01-08 21:28:00,
2013-01-08 16:33:00,31.0,23.4,30.29,SE,146,0.0,1.0,73,0.00,,,0.03,0.00,VWS V14.00,2013-01-08 21:33:00,
2013-01-08 16:38:00,30.5,23.2,30.29,SE,146,0.0,1.0,74,0.00,,,0.03,0.00,VWS V14.00,2013-01-08 21:38:00,
2013-01-08 16:43:00,30.1,22.8,30.29,SE,146,0.0,0.0,74,0.00,,,0.03,0.00,VWS V14.00,2013-01-08 21:43:00,
2013-01-08 16:48:00,29.8,22.9,30.30,SE,146,0.0,1.0,75,0.00,,,0.03,0.00,VWS V14.00,2013-01-08 21:48:00,
2013-01-08 16:53:00,29.5,22.6,30.30,SE,146,1.0,2.0,75,0.00,,,0.03,0.00,VWS V14.00,2013-01-08 21:53:00,
2013-01-08 16:58:00,29.1,22.5,30.30,SE,146,0.0,2.0,76,0.00,,,0.03,0.00,VWS V14.00,2013-01-08 21:58:00,
2013-01-08 17:03:00,28.7,22.1,30.30,SE,146,0.0,0.0,76,0.00,,,0.03,0.00,VWS V14.00,2013-01-08 22:03:00,
2013-01-08 17:08:00,28.4,22.1,30.30,SE,146,0.0,1.0,77,0.00,,,0.03,0.00,VWS V14.00,2013-01-08 22:08:00,
2013-01-08 17:13:00,28.1,21.8,30.30,SE,146,0.0,0.0,77,0.00,,,0.03,0.00,VWS V14.00,2013-01-08 22:13:00,
2013-01-08 17:18:00,27.8,21.5,30.30,SE,146,0.0,0.0,77,0.00,,,0.03,0.00,VWS V14.00,2013-01-08 22:18:00,
2013-01-08 17:23:00,27.5,21.5,30.30,SE,146,2.0,3.0,78,0.00,,,0.03,0.00,VWS V14.00,2013-01-08 22:23:00,
2013-01-08 17:28:00,27.2,21.6,30.30,SE,146,0.0,0.0,79,0.00,,,0.03,0.00,VWS V14.00,2013-01-08 22:28:00,
2013-01-08 17:33:00,26.9,21.6,30.30,SE,146,0.0,1.0,80,0.00,,,0.03,0.00,VWS V14.00,2013-01-08 22:33:00,
2013-01-08 17:38:00,26.7,21.4,30.31,SE,146,0.0,2.0,80,0.00,,,0.03,0.00,VWS V14.00,2013-01-08 22:38:00,
2013-01-08 17:43:00,26.5,21.5,30.31,SE,146,2.0,3.0,81,0.00,,,0.03,0.00,VWS V14.00,2013-01-08 22:43:00,
2013-01-08 17:48:00,26.4,21.4,30.30,SE,146,0.0,1.0,81,0.00,,,0.03,0.00,VWS V14.00,2013-01-08 22:48:00,
2013-01-08 17:53:00,26.2,21.2,30.30,SE,146,0.0,0.0,81,0.00,,,0.03,0.00,VWS V14.00,2013-01-08 22:53:00,
2013-01-08 17:58:00,26.0,21.3,30.31,SE,146,0.0,0.0,82,0.00,,,0.03,0.00,VWS V14.00,2013-01-08 22:58:00,
2013-01-08 18:03:00,25.9,21.2,30.31,SE,146,0.0,1.0,82,0.00,,,0.03,0.00,VWS V14.00,2013-01-08 23:03:00,
2013-01-08 18:08:00,25.8,21.1,30.31,NW,306,4.0,4.0,82,0.00,,,0.03,0.00,VWS V14.00,2013-01-08 23:08:00,
2013-01-08 18:13:00,25.7,21.3,30.31,NW,306,3.0,3.0,83,0.00,,,0.03,0.00,VWS V14.00,2013-01-08 23:13:00,
2013-01-08 18:18:00,25.6,21.2,30.31,NW,323,3.0,5.0,83,0.00,,,0.03,0.00,VWS V14.00,2013-01-08 23:18:00,
2013-01-08 18:23:00,25.4,21.0,30.32,NW,323,3.0,4.0,83,0.00,,,0.03,0.00,VWS V14.00,2013-01-08 23:23:00,
2013-01-08 18:28:00,25.3,20.9,30.32,NW,323,3.0,4.0,83,0.00,,,0.03,0.00,VWS V14.00,2013-01-08 23:28:00,
2013-01-08 18:33:00,25.3,20.9,30.32,NW,323,2.0,4.0,83,0.00,,,0.03,0.00,VWS V14.00,2013-01-08 23:33:00,
2013-01-08 18:38:00,25.2,20.8,30.32,NW,323,0.0,3.0,83,0.00,,,0.03,0.00,VWS V14.00,2013-01-08 23:38:00,
2013-01-08 18:43:00,25.1,21.0,30.32,NNW,327,4.0,5.0,84,0.00,,,0.03,0.00,VWS V14.00,2013-01-08 23:43:00,
2013-01-08 18:48:00,25.1,21.0,30.32,NNW,327,2.0,4.0,84,0.00,,,0.03,0.00,VWS V14.00,2013-01-08 23:48:00,
2013-01-08 18:53:00,25.1,21.0,30.32,NNW,327,0.0,2.0,84,0.00,,,0.03,0.00,VWS V14.00,2013-01-08 23:53:00,
2013-01-08 18:58:00,24.9,20.8,30.31,West,277,0.0,4.0,84,0.00,,,0.03,0.00,VWS V14.00,2013-01-08 23:58:00,
2013-01-08 19:03:00,24.7,20.6,30.31,West,273,2.0,3.0,84,0.00,,,0.03,0.00,VWS V14.00,2013-01-09 00:03:00,
2013-01-08 19:08:00,24.6,20.5,30.32,WNW,285,0.0,3.0,84,0.00,,,0.03,0.00,VWS V14.00,2013-01-09 00:08:00,
2013-01-08 19:13:00,24.4,20.3,30.32,WNW,288,3.0,3.0,84,0.00,,,0.03,0.00,VWS V14.00,2013-01-09 00:13:00,
2013-01-08 19:18:00,24.3,20.2,30.32,NW,308,0.0,4.0,84,0.00,,,0.03,0.00,VWS V14.00,2013-01-09 00:18:00,
2013-01-08 19:23:00,24.2,20.4,30.32,NW,308,3.0,4.0,85,0.00,,,0.03,0.00,VWS V14.00,2013-01-09 00:23:00,
2013-01-08 19:28:00,24.0,20.1,30.32,NW,308,0.0,4.0,85,0.00,,,0.03,0.00,VWS V14.00,2013-01-09 00:28:00,
2013-01-08 19:33:00,24.1,20.2,30.32,NW,306,1.0,2.0,85,0.00,,,0.03,0.00,VWS V14.00,2013-01-09 00:33:00,
2013-01-08 19:38:00,24.0,20.1,30.33,NW,306,0.0,1.0,85,0.00,,,0.03,0.00,VWS V14.00,2013-01-09 00:38:00,
2013-01-08 19:43:00,24.0,20.1,30.33,NW,306,0.0,3.0,85,0.00,,,0.03,0.00,VWS V14.00,2013-01-09 00:43:00,
2013-01-08 19:48:00,23.9,20.1,30.33,NW,306,2.0,4.0,85,0.00,,,0.03,0.00,VWS V14.00,2013-01-09 00:48:00,
2013-01-08 19:53:00,23.8,20.0,30.33,NW,307,1.0,4.0,85,0.00,,,0.03,0.00,VWS V14.00,2013-01-09 00:53:00,
2013-01-08 19:58:00,23.7,20.1,30.34,NW,319,2.0,5.0,86,0.00,,,0.03,0.00,VWS V14.00,2013-01-09 00:58:00,
2013-01-08 20:03:00,23.9,20.3,30.34,NW,319,3.0,4.0,86,0.00,,,0.03,0.00,VWS V14.00,2013-01-09 01:03:00,
2013-01-08 20:08:00,24.0,20.4,30.34,NW,319,2.0,3.0,86,0.00,,,0.03,0.00,VWS V14.00,2013-01-09 01:08:00,
2013-01-08 20:13:00,24.1,20.5,30.34,NW,319,0.0,0.0,86,0.00,,,0.03,0.00,VWS V14.00,2013-01-09 01:13:00,
2013-01-08 20:18:00,24.2,20.9,30.34,NW,319,0.0,1.0,87,0.00,,,0.03,0.00,VWS V14.00,2013-01-09 01:18:00,
2013-01-08 20:23:00,24.2,20.9,30.34,NW,319,2.0,4.0,87,0.00,,,0.03,0.00,VWS V14.00,2013-01-09 01:23:00,
2013-01-08 20:28:00,24.2,20.9,30.34,NW,319,5.0,5.0,87,0.00,,,0.03,0.00,VWS V14.00,2013-01-09 01:28:00,
2013-01-08 20:33:00,24.2,20.9,30.35,NW,319,3.0,4.0,87,0.00,,,0.03,0.00,VWS V14.00,2013-01-09 01:33:00,
2013-01-08 20:38:00,24.2,20.9,30.35,NW,319,4.0,4.0,87,0.00,,,0.03,0.00,VWS V14.00,2013-01-09 01:38:00,
2013-01-08 20:43:00,24.2,20.9,30.34,NW,319,1.0,5.0,87,0.00,,,0.03,0.00,VWS V14.00,2013-01-09 01:43:00,
2013-01-08 20:48:00,24.3,21.0,30.34,NW,319,3.0,4.0,87,0.00,,,0.03,0.00,VWS V14.00,2013-01-09 01:48:00,
2013-01-08 20:53:00,24.3,21.0,30.34,NW,319,2.0,4.0,87,0.00,,,0.03,0.00,VWS V14.00,2013-01-09 01:53:00,
2013-01-08 20:58:00,24.3,21.0,30.34,NW,319,0.0,3.0,87,0.00,,,0.03,0.00,VWS V14.00,2013-01-09 01:58:00,
2013-01-08 21:03:00,24.2,20.9,30.34,NW,319,3.0,3.0,87,0.00,,,0.03,0.00,VWS V14.00,2013-01-09 02:03:00,
2013-01-08 21:08:00,24.1,20.8,30.34,NW,319,0.0,4.0,87,0.00,,,0.03,0.00,VWS V14.00,2013-01-09 02:08:00,
2013-01-08 21:13:00,23.8,20.5,30.34,NW,319,2.0,4.0,87,0.00,,,0.03,0.00,VWS V14.00,2013-01-09 02:13:00,
2013-01-08 21:18:00,23.6,20.3,30.34,NW,319,3.0,3.0,87,0.00,,,0.03,0.00,VWS V14.00,2013-01-09 02:18:00,
2013-01-08 21:23:00,23.4,20.1,30.34,NW,319,1.0,4.0,87,0.00,,,0.03,0.00,VWS V14.00,2013-01-09 02:23:00,
2013-01-08 21:28:00,23.3,20.0,30.34,NW,319,0.0,2.0,87,0.00,,,0.03,0.00,VWS V14.00,2013-01-09 02:28:00,
2013-01-08 21:33:00,23.1,19.8,30.34,NW,319,2.0,3.0,87,0.00,,,0.03,0.00,VWS V14.00,2013-01-09 02:33:00,
2013-01-08 21:38:00,23.0,19.7,30.34,NW,319,2.0,3.0,87,0.00,,,0.03,0.00,VWS V14.00,2013-01-09 02:38:00,
2013-01-08 21:43:00,22.9,19.6,30.34,NW,319,3.0,4.0,87,0.00,,,0.03,0.00,VWS V14.00,2013-01-09 02:43:00,
2013-01-08 21:48:00,22.8,19.5,30.34,NW,319,4.0,4.0,87,0.00,,,0.03,0.00,VWS V14.00,2013-01-09 02:48:00,
2013-01-08 21:53:00,22.9,19.9,30.34,NW,319,0.0,4.0,88,0.00,,,0.03,0.00,VWS V14.00,2013-01-09 02:53:00,
2013-01-08 21:58:00,22.8,19.5,30.34,NW,319,0.0,0.0,87,0.00,,,0.03,0.00,VWS V14.00,2013-01-09 02:58:00,
2013-01-08 22:03:00,22.8,19.8,30.34,NW,319,0.0,0.0,88,0.00,,,0.03,0.00,VWS V14.00,2013-01-09 03:03:00,
2013-01-08 22:08:00,22.9,19.9,30.34,NW,319,1.0,3.0,88,0.00,,,0.03,0.00,VWS V14.00,2013-01-09 03:08:00,
2013-01-08 22:13:00,22.8,19.8,30.34,NW,319,0.0,1.0,88,0.00,,,0.03,0.00,VWS V14.00,2013-01-09 03:13:00,
2013-01-08 22:18:00,22.7,19.7,30.34,NW,319,0.0,2.0,88,0.00,,,0.03,0.00,VWS V14.00,2013-01-09 03:18:00,
2013-01-08 22:23:00,22.7,19.7,30.34,NW,319,0.0,2.0,88,0.00,,,0.03,0.00,VWS V14.00,2013-01-09 03:23:00,
2013-01-08 22:28:00,22.6,19.6,30.34,NW,319,0.0,0.0,88,0.00,,,0.03,0.00,VWS V14.00,2013-01-09 03:28:00,
2013-01-08 22:33:00,22.5,19.5,30.35,NW,319,1.0,2.0,88,0.00,,,0.03,0.00,VWS V14.00,2013-01-09 03:33:00,
2013-01-08 22:38:00,22.4,19.4,30.35,NW,319,2.0,4.0,88,0.00,,,0.03,0.00,VWS V14.00,2013-01-09 03:38:00,
2013-01-08 22:43:00,22.1,19.1,30.35,NW,319,0.0,1.0,88,0.00,,,0.03,0.00,VWS V14.00,2013-01-09 03:43:00,
2013-01-08 22:48:00,21.9,18.9,30.35,NW,319,0.0,0.0,88,0.00,,,0.03,0.00,VWS V14.00,2013-01-09 03:48:00,
2013-01-08 22:53:00,21.7,18.7,30.35,NW,319,3.0,4.0,88,0.00,,,0.03,0.00,VWS V14.00,2013-01-09 03:53:00,
2013-01-08 22:58:00,21.5,18.5,30.34,NW,319,2.0,3.0,88,0.00,,,0.03,0.00,VWS V14.00,2013-01-09 03:58:00,
2013-01-08 23:03:00,21.4,18.4,30.35,NW,319,3.0,3.0,88,0.00,,,0.03,0.00,VWS V14.00,2013-01-09 04:03:00,
2013-01-08 23:08:00,21.2,18.2,30.35,NW,319,0.0,3.0,88,0.00,,,0.03,0.00,VWS V14.00,2013-01-09 04:08:00,
2013-01-08 23:13:00,21.2,18.5,30.34,NW,319,2.0,2.0,89,0.00,,,0.03,0.00,VWS V14.00,2013-01-09 04:13:00,
2013-01-08 23:18:00,21.3,18.6,30.35,NW,319,4.0,4.0,89,0.00,,,0.03,0.00,VWS V14.00,2013-01-09 04:18:00,
2013-01-08 23:23:00,21.3,18.6,30.34,NW,319,2.0,3.0,89,0.00,,,0.03,0.00,VWS V14.00,2013-01-09 04:23:00,
2013-01-08 23:28:00,21.3,18.6,30.34,NW,319,3.0,4.0,89,0.00,,,0.03,0.00,VWS V14.00,2013-01-09 04:28:00,
2013-01-08 23:33:00,21.3,18.6,30.34,NW,319,2.0,3.0,89,0.00,,,0.03,0.00,VWS V14.00,2013-01-09 04:33:00,
2013-01-08 23:38:00,21.3,18.6,30.35,NW,319,3.0,4.0,89,0.00,,,0.03,0.00,VWS V14.00,2013-01-09 04:38:00,
2013-01-08 23:43:00,21.2,18.5,30.34,NW,319,4.0,4.0,89,0.00,,,0.03,0.00,VWS V14.00,2013-01-09 04:43:00,
2013-01-08 23:48:00,21.2,18.5,30.34,NW,319,4.0,4.0,89,0.00,,,0.03,0.00,VWS V14.00,2013-01-09 04:48:00,
2013-01-08 23:53:00,21.0,18.3,30.34,NW,319,3.0,4.0,89,0.00,,,0.03,0.00,VWS V14.00,2013-01-09 04:53:00,
2013-01-08 23:58:00,20.8,18.1,30.35,NW,319,4.0,4.0,89,0.00,,,0.03,0.00,VWS V14.00,2013-01-09 04:58:00,